Whitestown, New York
Current Conditions -  °F | °C
As of 2:53 PM on Monday 22 Dec 2014 (Local Time) from KRME Reporting Station
Overcast Overcast  
Wind Chill: 28°   Ceiling: 3200
Heat Index: 36°   Visibility: 10mi
Dew Point: 29°   Wind: 10mph
Humidity: 76%   Direction: 120°ESE
Pressure: 30.22"   Gusts: NA
Location:  43.1203°N, 75.3249°W
Report Text: KRME 221953Z 12009KT 10SM OVC032 02/M02 A3022 RMK AO2 SLP236 T00221017
Loading
Personal Weather Stations






























Interactive Weather Map New forecast layout! Learn more

10-Day Weather Forecast

Advertisements
Track Severe Weather on mobile